x

South Hecate Strait (46185) Weather Station

6:00am - Sun 20th Apr 2014 All times are PDT. -7 hours from GMT.

  • Wind
    27mph, 34mph gusts
  • Sea Temp 46°f
  • Air Temp 47°f
  • Sea Pressure 1012.2mb
  • South Hecate Strait
  • South Hecate Strait

More Historic Weather Station data

Upgrade to MSW Pro to gain access to the past 30 days of data for over 8000 Wavebouys and Weather Stations around the globe.

Join Pro

Comparision Forecast

View Surf forecast
   
Sun 04/20 6:00am 27 34 mph 1012.2mb 46f 47f
5:00am 25 31 mph 1012.5mb 46f 47f
4:00am 22 27 mph 1012.6mb 46f 47f
3:00am 20 27 mph 1012.3mb 46f 46f
2:00am 22 27 mph 1011.8mb 46f 47f
1:00am 22 29 mph 1011mb 46f 47f
12:00am 25 31 mph 1009.8mb 46f 47f
Sat 04/19 11:00pm 22 29 mph 1008.5mb 46f 47f
10:00pm 27 34 mph 1007.2mb 46f 47f
9:00pm 25 31 mph 1005.8mb 46f 46f
8:00pm 27 34 mph 1003.8mb 46f 47f
7:00pm 27 34 mph 1002.1mb 46f 47f
6:00pm 25 31 mph 1000.5mb 46f 47f
5:00pm 27 34 mph 998.6mb 46f 47f
4:00pm 27 36 mph 997mb 46f 47f
3:00pm 34 43 mph 995.7mb 46f 47f
2:00pm 40 49 mph 994.9mb 46f 47f
1:00pm 40
mph
994.6mb - 48f
12:00pm 40 51 mph 994.6mb 46f 48f
11:00am 38
mph
994.9mb 46f 49f
10:00am 34 43 mph 995.1mb 46f 49f
9:00am 27 38 mph 995.7mb 46f 48f
8:00am 36 47 mph 995.7mb 46f 49f
7:00am 36 47 mph 996mb 46f 49f
6:00am 38 54 mph 996.5mb 46f 49f
5:00am 31
mph
997.4mb 46f 48f
4:00am 31 40 mph 998.5mb 46f 47f
3:00am 36 45 mph 999.6mb 46f 46f
2:00am 36 45 mph 1000.8mb 46f 46f
1:00am 38 51 mph 1001.9mb 46f 47f
12:00am 36 45 mph 1003.2mb 46f 47f
Fri 04/18 11:00pm 34 43 mph 1004.9mb 46f 46f
10:00pm 29 36 mph 1005.9mb 46f 47f
9:00pm 27 34 mph 1007.1mb 46f 47f
8:00pm 25 29 mph 1008.2mb 46f 47f
7:00pm 25 31 mph 1009.1mb 46f 47f
6:00pm 22 29 mph 1010mb 46f 47f
5:00pm 20 27 mph 1011.1mb 46f 46f
4:00pm 18 22 mph 1011.8mb 46f 46f
3:00pm 22 29 mph 1012.3mb 46f 46f
2:00pm 25 31 mph 1012.9mb 46f 46f
1:00pm 27 31 mph 1013.3mb 46f 45f
11:00am 18 22 mph 1013.5mb 46f 45f
10:00am 16 20 mph 1013.7mb 46f 45f
9:00am 16 20 mph 1013.8mb 46f 45f
8:00am 11 16 mph 1013.6mb 46f 45f
7:00am 7 11 mph 1013.2mb 46f 46f
6:00am 4 9 mph 1012.9mb 46f 46f
5:00am 4
mph
1012.4mb 46f 45f
4:00am 4
mph
1012.1mb 46f 45f
3:00am 7
mph
1011.9mb 46f 46f
2:00am 7 9 mph 1011.7mb 46f 46f
1:00am 9 11 mph 1011.3mb 46f 46f
12:00am 11 13 mph 1011mb 46f 46f
Thu 04/17 11:00pm 9 11 mph 1010.5mb 46f 46f
10:00pm 11 13 mph 1010.1mb 46f 46f
9:00pm 11 13 mph 1009.7mb 46f 46f
8:00pm 11 16 mph 1008.9mb 46f 46f
7:00pm 16 18 mph 1008.4mb 46f 46f
6:00pm 16 20 mph 1007.8mb 46f 47f
5:00pm 18 22 mph 1007.3mb 46f 47f
4:00pm 18 22 mph 1006.8mb 46f 47f
3:00pm 18 22 mph 1006.4mb 46f 47f
2:00pm 18 20 mph 1005.8mb 46f 46f
1:00pm 18 22 mph 1005.2mb 46f 46f
12:00pm 18 22 mph 1004.5mb 46f 46f
11:00am 18 22 mph 1003.8mb 46f 47f
10:00am 18 22 mph 1003.1mb 46f 47f
9:00am 18 25 mph 1002.2mb 46f 47f
8:00am 18 22 mph 1001.8mb 46f 46f
7:00am 20 25 mph 1000.5mb 46f 46f
6:00am 22 27 mph 999.1mb 46f 46f
5:00am 22 29 mph 998mb 46f 47f
4:00am 25 31 mph 996.4mb 46f 46f
3:00am 36 45 mph 995.1mb 46f 47f
2:00am 34 51 mph 996mb 46f 47f
1:00am 36 45 mph 996.8mb 46f 47f
12:00am 34 43 mph 998.2mb 46f 47f
Wed 04/16 11:00pm 31
mph
999.1mb 46f 47f
9:00pm 27 34 mph 1002.2mb 46f 47f
8:00pm 25 31 mph 1003.3mb 46f 47f
7:00pm 22 29 mph 1004mb 46f 47f
6:00pm 20 25 mph 1004.4mb 46f 47f
5:00pm 20 25 mph 1005.1mb 46f 47f
4:00pm 18 22 mph 1005.7mb 46f 47f
3:00pm 18 22 mph 1006.5mb 46f 47f